createdAt,value
2023-02-25T00:02:11.728Z,72.30
2023-02-25T00:04:55.997Z,72.22
2023-02-25T00:07:49.005Z,72.30
2023-02-25T00:10:43.810Z,72.34
2023-02-25T00:13:29.951Z,72.18
2023-02-25T00:16:26.293Z,72.15
2023-02-25T00:19:18.037Z,72.07
2023-02-25T00:22:12.273Z,72.10
2023-02-25T00:25:05.632Z,72.07
2023-02-25T00:28:00.652Z,72.16
2023-02-25T00:30:53.540Z,72.33
2023-02-25T00:33:47.152Z,72.47
2023-02-25T00:36:40.395Z,72.52
2023-02-25T00:39:42.097Z,72.61
2023-02-25T00:42:35.286Z,72.56
2023-02-25T00:45:28.633Z,72.59
2023-02-25T00:48:22.682Z,72.59
2023-02-25T00:51:17.066Z,72.53
2023-02-25T00:54:10.072Z,72.48
2023-02-25T00:57:05.645Z,72.44
2023-02-25T00:59:58.909Z,72.40
2023-02-25T01:02:54.931Z,72.35
2023-02-25T01:05:49.530Z,72.30
2023-02-25T01:08:44.192Z,72.22
2023-02-25T01:11:38.199Z,72.09
2023-02-25T01:14:25.625Z,72.08
2023-02-25T01:17:10.101Z,71.89
2023-02-25T01:20:06.190Z,71.79
2023-02-25T01:23:01.055Z,71.64
2023-02-25T01:25:54.127Z,71.64
2023-02-25T01:28:46.961Z,71.65
2023-02-25T01:31:40.588Z,71.66
2023-02-25T01:34:34.491Z,71.70
2023-02-25T01:37:27.253Z,71.74
2023-02-25T01:40:20.789Z,71.90
2023-02-25T01:43:19.325Z,71.84
2023-02-25T01:46:12.303Z,71.86
2023-02-25T01:49:08.727Z,71.96
2023-02-25T01:52:08.316Z,72.03
2023-02-25T01:55:01.996Z,72.00
2023-02-25T01:57:37.687Z,71.93
2023-02-25T02:00:33.913Z,71.88
2023-02-25T02:03:19.327Z,71.84
2023-02-25T02:06:16.373Z,71.84
2023-02-25T02:09:13.416Z,71.88
2023-02-25T02:12:08.586Z,72.11
2023-02-25T02:15:03.974Z,72.09
2023-02-25T02:18:00.953Z,71.96
2023-02-25T02:21:09.306Z,71.78
2023-02-25T02:24:57.198Z,71.67
2023-02-25T02:31:40.822Z,71.18
2023-02-25T02:35:00.935Z,71.04
2023-02-25T02:38:08.900Z,71.22
2023-02-25T02:41:09.725Z,71.19
2023-02-25T02:44:13.692Z,71.15
2023-02-25T02:47:11.257Z,71.38
2023-02-25T02:50:07.462Z,71.58
2023-02-25T02:53:03.467Z,71.78
2023-02-25T02:56:00.305Z,72.09
2023-02-25T02:58:58.088Z,72.23
2023-02-25T03:01:52.521Z,72.32
2023-02-25T03:04:43.427Z,72.25
2023-02-25T03:07:42.398Z,72.48
2023-02-25T03:10:29.836Z,72.65
2023-02-25T03:13:23.005Z,72.75
2023-02-25T03:16:37.958Z,72.75
2023-02-25T03:19:37.721Z,73.04
2023-02-25T03:22:34.724Z,73.34
2023-02-25T03:25:33.286Z,73.64
2023-02-25T03:28:30.658Z,73.99
2023-02-25T03:31:26.298Z,74.27
2023-02-25T03:34:22.643Z,74.54
2023-02-25T03:37:20.129Z,74.71
2023-02-25T03:40:17.267Z,74.92
2023-02-25T03:43:15.765Z,74.88
2023-02-25T03:46:10.166Z,74.95
2023-02-25T03:49:05.666Z,74.99
2023-02-25T03:52:01.923Z,74.94
2023-02-25T03:54:56.295Z,74.99
2023-02-25T03:57:52.768Z,74.60
2023-02-25T04:00:49.178Z,74.16
2023-02-25T04:03:42.214Z,74.28
2023-02-25T04:06:26.741Z,74.32
2023-02-25T04:09:21.593Z,74.34
2023-02-25T04:12:15.808Z,74.54
2023-02-25T04:15:14.776Z,74.77
2023-02-25T04:18:09.467Z,74.97
2023-02-25T04:21:03.897Z,74.86
2023-02-25T04:23:57.368Z,73.77
2023-02-25T04:27:02.626Z,73.40
2023-02-25T04:29:55.482Z,73.51
2023-02-25T04:32:48.830Z,73.83
2023-02-25T04:35:41.729Z,74.19
2023-02-25T04:38:34.723Z,74.43
2023-02-25T04:41:32.889Z,74.83
2023-02-25T04:44:19.328Z,74.93
2023-02-25T04:47:12.638Z,74.74
2023-02-25T04:50:09.613Z,74.61
2023-02-25T04:53:04.324Z,74.60
2023-02-25T04:55:57.125Z,74.64
2023-02-25T04:58:49.954Z,74.81
2023-02-25T05:01:43.223Z,74.95
2023-02-25T05:04:36.533Z,74.77
2023-02-25T05:07:29.393Z,74.56
2023-02-25T05:10:15.292Z,74.68
2023-02-25T05:13:08.480Z,74.88
2023-02-25T05:15:54.142Z,74.86
2023-02-25T05:18:49.420Z,74.76
2023-02-25T05:21:42.232Z,74.84
2023-02-25T05:24:35.197Z,74.88
2023-02-25T05:27:28.098Z,75.01
2023-02-25T05:30:21.590Z,75.04
2023-02-25T05:33:09.278Z,75.06
2023-02-25T05:36:02.106Z,74.97
2023-02-25T05:38:56.525Z,74.82
2023-02-25T05:41:49.254Z,74.64
2023-02-25T05:44:42.411Z,74.62
2023-02-25T05:47:36.275Z,74.70
2023-02-25T05:50:31.830Z,74.56
2023-02-25T05:53:24.596Z,74.47
2023-02-25T05:56:19.870Z,74.38
2023-02-25T05:59:13.277Z,74.16
2023-02-25T06:02:06.518Z,74.09
2023-02-25T06:04:59.498Z,74.13
2023-02-25T06:07:44.665Z,74.39
2023-02-25T06:10:39.531Z,74.58
2023-02-25T06:13:25.328Z,74.91
2023-02-25T06:16:11.124Z,74.84
2023-02-25T06:19:06.724Z,74.47
2023-02-25T06:21:59.760Z,74.26
2023-02-25T06:24:53.584Z,74.45
2023-02-25T06:27:46.366Z,74.55
2023-02-25T06:30:42.833Z,74.43
2023-02-25T06:33:35.808Z,74.37
2023-02-25T06:36:22.981Z,74.11
2023-02-25T06:39:16.275Z,74.22
2023-02-25T06:42:09.190Z,74.39
2023-02-25T06:45:02.164Z,74.19
2023-02-25T06:47:57.226Z,74.13
2023-02-25T06:50:50.782Z,73.98
2023-02-25T06:53:36.547Z,73.95
2023-02-25T06:56:10.781Z,73.98
2023-02-25T06:59:03.545Z,74.18
2023-02-25T07:01:56.561Z,74.40
2023-02-25T07:04:49.350Z,74.46
2023-02-25T07:07:44.046Z,74.28
2023-02-25T07:10:37.472Z,74.26
2023-02-25T07:13:30.462Z,74.19
2023-02-25T07:16:22.717Z,74.31
2023-02-25T07:19:17.093Z,74.24
2023-02-25T07:22:13.231Z,74.26
2023-02-25T07:24:58.701Z,74.15
2023-02-25T07:27:51.851Z,74.19
2023-02-25T07:30:44.942Z,74.41
2023-02-25T07:33:38.259Z,74.48
2023-02-25T07:36:33.188Z,74.23
2023-02-25T07:39:26.373Z,74.28
2023-02-25T07:42:19.051Z,74.34
2023-02-25T07:45:14.081Z,74.26
2023-02-25T07:48:07.529Z,74.11
2023-02-25T07:51:05.386Z,74.13
2023-02-25T07:53:59.530Z,74.07
2023-02-25T07:56:42.507Z,73.87
2023-02-25T07:59:36.212Z,74.16
2023-02-25T08:02:29.277Z,73.80
2023-02-25T08:05:16.378Z,73.21
2023-02-25T08:08:10.347Z,73.14
2023-02-25T08:11:08.615Z,73.18
2023-02-25T08:14:02.163Z,73.13
2023-02-25T08:16:45.127Z,73.13
2023-02-25T08:19:41.907Z,72.69
2023-02-25T08:22:35.023Z,72.59
2023-02-25T08:25:17.366Z,72.18
2023-02-25T08:28:10.514Z,72.01
2023-02-25T08:31:03.815Z,71.58
2023-02-25T08:33:58.871Z,71.35
2023-02-25T08:36:51.813Z,70.87
2023-02-25T08:39:45.080Z,70.81
2023-02-25T08:42:31.442Z,70.59
2023-02-25T08:45:24.597Z,70.63
2023-02-25T08:48:08.706Z,70.30
2023-02-25T08:51:08.780Z,70.13
2023-02-25T08:54:02.599Z,70.04
2023-02-25T08:56:55.664Z,69.91
2023-02-25T08:59:28.339Z,69.50
2023-02-25T09:02:01.075Z,69.01
2023-02-25T09:04:54.278Z,68.90
2023-02-25T09:07:47.444Z,69.13
2023-02-25T09:10:20.738Z,68.72
2023-02-25T09:12:55.185Z,68.42
2023-02-25T09:15:32.634Z,68.34
2023-02-25T09:18:25.609Z,67.76
2023-02-25T09:21:19.507Z,67.64
2023-02-25T09:23:55.781Z,67.33
2023-02-25T09:26:39.897Z,66.94
2023-02-25T09:29:33.054Z,67.22
2023-02-25T09:32:26.174Z,66.88
2023-02-25T09:35:19.442Z,66.79
2023-02-25T09:38:13.159Z,67.03
2023-02-25T09:41:18.304Z,66.86
2023-02-25T09:44:16.865Z,66.66
2023-02-25T09:47:19.515Z,66.47
2023-02-25T09:50:21.541Z,66.23
2023-02-25T09:53:22.491Z,65.75
2023-02-25T09:56:17.697Z,65.06
2023-02-25T09:59:16.677Z,64.49
2023-02-25T10:02:28.084Z,64.60
2023-02-25T10:05:26.298Z,64.75
2023-02-25T10:08:19.227Z,63.58
2023-02-25T10:11:05.233Z,63.43
2023-02-25T10:14:09.063Z,63.77
2023-02-25T10:17:10.297Z,63.39
2023-02-25T10:20:18.494Z,63.41
2023-02-25T10:23:12.379Z,63.78
2023-02-25T10:26:18.107Z,63.54
2023-02-25T10:29:17.205Z,63.45
2023-02-25T10:32:21.437Z,63.31
2023-02-25T10:35:23.119Z,63.59
2023-02-25T10:38:15.898Z,63.69
2023-02-25T10:41:09.315Z,63.69
2023-02-25T10:44:02.161Z,64.22
2023-02-25T10:47:03.072Z,64.40
2023-02-25T10:50:23.077Z,65.07
2023-02-25T10:53:05.305Z,66.09
2023-02-25T10:55:52.076Z,66.91
2023-02-25T10:58:47.237Z,67.79
2023-02-25T11:01:43.506Z,67.87
2023-02-25T11:04:36.408Z,68.27
2023-02-25T11:07:34.432Z,68.70
2023-02-25T11:10:27.764Z,69.31
2023-02-25T11:13:03.557Z,69.63
2023-02-25T11:15:53.721Z,69.88
2023-02-25T11:18:45.801Z,70.35
2023-02-25T11:21:41.120Z,70.17
2023-02-25T11:24:31.407Z,69.85
2023-02-25T11:27:28.321Z,70.07
2023-02-25T11:30:18.009Z,70.13
2023-02-25T11:33:33.382Z,70.19
2023-02-25T11:36:32.189Z,70.92
2023-02-25T11:39:26.987Z,71.67
2023-02-25T11:42:26.446Z,71.90
2023-02-25T11:45:20.316Z,71.77
2023-02-25T11:48:21.899Z,71.53
2023-02-25T11:51:18.710Z,71.14
2023-02-25T11:54:21.339Z,70.96
2023-02-25T11:57:28.123Z,70.42
2023-02-25T12:00:28.860Z,69.90
2023-02-25T12:03:58.514Z,69.77
2023-02-25T12:07:12.738Z,69.05
2023-02-25T12:10:31.706Z,69.01
2023-02-25T12:14:03.897Z,68.54
2023-02-25T12:17:26.707Z,68.62
2023-02-25T12:20:50.370Z,68.12
2023-02-25T12:24:20.291Z,67.82
2023-02-25T12:27:32.188Z,68.03
2023-02-25T12:30:43.554Z,66.83
2023-02-25T12:33:46.620Z,65.51
2023-02-25T12:36:53.111Z,65.29
2023-02-25T12:40:12.275Z,64.72
2023-02-25T12:43:16.775Z,64.51
2023-02-25T12:46:40.915Z,64.01
2023-02-25T12:49:46.131Z,62.91
2023-02-25T12:52:36.279Z,62.64
2023-02-25T12:55:46.494Z,62.27
2023-02-25T12:58:33.521Z,62.17
2023-02-25T13:01:44.142Z,62.10
2023-02-25T13:04:55.128Z,62.27
2023-02-25T13:08:22.457Z,62.39
2023-02-25T13:11:21.919Z,62.17
2023-02-25T13:14:38.731Z,61.73
2023-02-25T13:17:55.688Z,61.97
2023-02-25T13:20:55.212Z,61.92
2023-02-25T13:24:01.538Z,61.62
2023-02-25T13:27:05.076Z,60.03
2023-02-25T13:30:16.792Z,58.89
2023-02-25T13:33:29.710Z,60.31
2023-02-25T13:36:34.029Z,62.23
2023-02-25T13:39:33.360Z,66.00
2023-02-25T13:42:32.094Z,68.42
2023-02-25T13:45:40.363Z,67.57
2023-02-25T13:49:04.593Z,66.76
2023-02-25T13:52:27.819Z,67.28
2023-02-25T13:55:47.742Z,64.71
2023-02-25T13:58:54.757Z,65.09
2023-02-25T14:01:57.598Z,65.37
2023-02-25T14:05:13.179Z,65.76
2023-02-25T14:08:21.513Z,65.91
2023-02-25T14:11:32.683Z,65.91
2023-02-25T14:14:55.728Z,65.73
2023-02-25T14:18:08.121Z,65.75
2023-02-25T14:21:05.722Z,66.51
2023-02-25T14:23:49.771Z,64.16
2023-02-25T14:26:56.504Z,64.64
2023-02-25T14:29:57.276Z,61.02
2023-02-25T14:32:57.494Z,57.85
2023-02-25T14:36:09.063Z,58.11
2023-02-25T14:39:24.196Z,59.70
2023-02-25T14:42:36.678Z,61.25
2023-02-25T14:45:28.058Z,65.29
2023-02-25T14:48:28.111Z,67.45
2023-02-25T14:51:53.565Z,65.86
2023-02-25T14:55:38.869Z,62.37
2023-02-25T14:58:53.546Z,61.01
2023-02-25T15:01:47.303Z,61.20
2023-02-25T15:04:55.428Z,61.68
2023-02-25T15:08:04.044Z,62.94
2023-02-25T15:11:23.446Z,64.10
2023-02-25T15:14:41.861Z,65.40
2023-02-25T15:18:14.485Z,66.47
2023-02-25T15:21:38.851Z,67.24
2023-02-25T15:24:42.831Z,67.86
2023-02-25T15:27:50.281Z,68.34
2023-02-25T15:31:08.005Z,68.63
2023-02-25T15:33:57.533Z,68.89
2023-02-25T15:36:50.208Z,69.54
2023-02-25T15:39:56.574Z,69.73
2023-02-25T15:42:51.223Z,70.36
2023-02-25T15:45:41.357Z,70.73
2023-02-25T15:48:38.656Z,71.15
2023-02-25T15:51:46.431Z,71.25
2023-02-25T15:54:50.836Z,70.98
2023-02-25T15:57:38.731Z,70.68
2023-02-25T16:00:56.027Z,70.83
2023-02-25T16:03:46.500Z,70.82
2023-02-25T16:06:43.133Z,70.99
2023-02-25T16:09:36.405Z,71.01
2023-02-25T16:12:28.535Z,71.34
2023-02-25T16:15:27.109Z,71.46
2023-02-25T16:18:18.827Z,71.65
2023-02-25T16:21:08.310Z,71.71
2023-02-25T16:24:00.746Z,71.89
2023-02-25T16:27:00.000Z,71.99
2023-02-25T16:29:59.514Z,72.09
2023-02-25T16:32:43.120Z,71.89
2023-02-25T16:35:42.103Z,72.06
2023-02-25T16:38:42.185Z,72.08
2023-02-25T16:41:38.955Z,72.20
2023-02-25T16:44:40.546Z,72.37
2023-02-25T16:47:28.486Z,72.48
2023-02-25T16:50:24.410Z,72.57
2023-02-25T16:53:23.738Z,72.93
2023-02-25T16:56:21.486Z,73.05
2023-02-25T16:59:05.085Z,73.22
2023-02-25T17:02:04.035Z,73.04
2023-02-25T17:04:57.587Z,73.04
2023-02-25T17:07:57.309Z,72.60
2023-02-25T17:10:56.270Z,72.31
2023-02-25T17:13:51.416Z,72.27
2023-02-25T17:16:44.865Z,72.13
2023-02-25T17:19:32.671Z,72.12
2023-02-25T17:22:28.139Z,71.84
2023-02-25T17:25:07.306Z,71.39
2023-02-25T17:27:53.036Z,71.09
2023-02-25T17:30:42.346Z,70.87
2023-02-25T17:33:35.011Z,70.43
2023-02-25T17:36:23.734Z,70.39
2023-02-25T17:39:13.231Z,70.07
2023-02-25T17:41:59.125Z,70.02
2023-02-25T17:44:51.898Z,69.87
2023-02-25T17:47:46.738Z,69.89
2023-02-25T17:50:39.810Z,69.48
2023-02-25T17:53:40.295Z,69.47
2023-02-25T17:56:35.605Z,69.45
2023-02-25T17:59:38.892Z,69.11
2023-02-25T18:02:36.249Z,69.02
2023-02-25T18:05:29.540Z,69.02
2023-02-25T18:08:19.924Z,68.92
2023-02-25T18:11:27.066Z,68.82
2023-02-25T18:14:08.275Z,68.96
2023-02-25T18:17:04.192Z,69.11
2023-02-25T18:19:58.799Z,69.32
2023-02-25T18:22:48.872Z,69.37
2023-02-25T18:25:43.285Z,69.30
2023-02-25T18:28:21.641Z,69.23
2023-02-25T18:31:08.289Z,69.11
2023-02-25T18:34:01.181Z,68.93
2023-02-25T18:36:53.154Z,68.81
2023-02-25T18:39:35.209Z,68.57
2023-02-25T18:42:28.332Z,68.52
2023-02-25T18:45:23.589Z,68.42
2023-02-25T18:48:17.334Z,68.45
2023-02-25T18:51:14.699Z,68.38
2023-02-25T18:54:08.208Z,68.21
2023-02-25T18:56:53.658Z,68.40
2023-02-25T18:59:47.813Z,68.39
2023-02-25T19:02:48.391Z,68.44
2023-02-25T19:05:41.841Z,68.50
2023-02-25T19:08:35.183Z,68.48
2023-02-25T19:11:31.491Z,68.60
2023-02-25T19:14:24.352Z,68.79
2023-02-25T19:17:19.207Z,68.84
2023-02-25T19:20:16.347Z,68.99
2023-02-25T19:23:11.524Z,69.24
2023-02-25T19:26:03.437Z,69.21
2023-02-25T19:28:56.754Z,69.32
2023-02-25T19:31:49.669Z,69.50
2023-02-25T19:34:35.568Z,69.68
2023-02-25T19:37:32.173Z,69.94
2023-02-25T19:40:20.333Z,69.89
2023-02-25T19:43:13.920Z,69.88
2023-02-25T19:46:12.247Z,69.96
2023-02-25T19:49:06.683Z,69.99
2023-02-25T19:51:59.924Z,70.06
2023-02-25T19:54:52.672Z,70.18
2023-02-25T19:57:46.812Z,70.33
2023-02-25T20:00:45.807Z,70.25
2023-02-25T20:03:39.482Z,70.09
2023-02-25T20:06:33.204Z,70.05
2023-02-25T20:09:25.973Z,70.19
2023-02-25T20:12:20.460Z,70.24
2023-02-25T20:15:06.239Z,70.27
2023-02-25T20:17:59.376Z,70.09
2023-02-25T20:20:46.200Z,70.03
2023-02-25T20:23:32.898Z,69.94
2023-02-25T20:26:20.154Z,69.94
2023-02-25T20:29:06.028Z,69.87
2023-02-25T20:31:52.318Z,69.96
2023-02-25T20:34:27.757Z,70.15
2023-02-25T20:37:24.707Z,70.23
2023-02-25T20:40:04.105Z,70.31
2023-02-25T20:42:57.293Z,70.32
2023-02-25T20:45:31.026Z,70.43
2023-02-25T20:48:30.269Z,70.56
2023-02-25T20:51:03.602Z,70.75
2023-02-25T20:54:00.578Z,70.97
2023-02-25T20:56:53.605Z,71.18
2023-02-25T20:59:46.460Z,71.43
2023-02-25T21:02:39.640Z,71.56
2023-02-25T21:05:31.123Z,71.90
2023-02-25T21:08:23.895Z,71.97
2023-02-25T21:11:16.708Z,71.87
2023-02-25T21:14:10.562Z,71.71
2023-02-25T21:17:03.479Z,71.62
2023-02-25T21:19:56.609Z,71.58
2023-02-25T21:22:50.384Z,71.39
2023-02-25T21:25:43.194Z,71.43
2023-02-25T21:28:36.490Z,71.32
2023-02-25T21:31:29.460Z,71.20
2023-02-25T21:34:15.006Z,71.14
2023-02-25T21:37:07.770Z,70.97
2023-02-25T21:40:00.613Z,71.03
2023-02-25T21:42:52.475Z,70.77
2023-02-25T21:45:55.521Z,71.00
2023-02-25T21:48:50.649Z,70.99
2023-02-25T21:51:43.473Z,71.17
2023-02-25T21:54:36.590Z,71.26
2023-02-25T21:57:19.821Z,71.10
2023-02-25T22:00:10.468Z,71.10
2023-02-25T22:03:09.953Z,71.12
2023-02-25T22:06:03.326Z,70.99
2023-02-25T22:08:58.618Z,70.94
2023-02-25T22:11:44.039Z,70.74
2023-02-25T22:14:27.142Z,70.55
2023-02-25T22:17:19.977Z,70.45
2023-02-25T22:20:14.916Z,70.41
2023-02-25T22:23:08.018Z,70.47
2023-02-25T22:26:04.439Z,70.69
2023-02-25T22:28:58.837Z,70.78
2023-02-25T22:31:51.840Z,70.90
2023-02-25T22:34:44.703Z,70.98
2023-02-25T22:37:22.832Z,70.86
2023-02-25T22:40:16.878Z,70.94
2023-02-25T22:43:10.073Z,71.09
2023-02-25T22:46:09.724Z,71.04
2023-02-25T22:49:04.653Z,71.08
2023-02-25T22:51:57.645Z,71.30
2023-02-25T22:54:43.520Z,71.20
2023-02-25T22:57:36.563Z,71.09
2023-02-25T23:00:36.380Z,71.12
2023-02-25T23:03:31.199Z,71.28
2023-02-25T23:06:18.082Z,71.62
2023-02-25T23:09:10.982Z,72.12
2023-02-25T23:12:03.746Z,72.47
2023-02-25T23:14:56.550Z,73.02
2023-02-25T23:17:49.329Z,73.37
2023-02-25T23:20:42.380Z,73.67
2023-02-25T23:23:38.768Z,73.81
2023-02-25T23:26:34.820Z,74.02
2023-02-25T23:29:27.658Z,74.02
2023-02-25T23:32:21.054Z,74.20
2023-02-25T23:35:14.227Z,74.33
2023-02-25T23:38:07.225Z,74.51
2023-02-25T23:41:02.884Z,74.55
2023-02-25T23:43:36.901Z,74.78
2023-02-25T23:46:31.294Z,74.74
2023-02-25T23:49:24.202Z,74.84
2023-02-25T23:52:18.864Z,74.76
2023-02-25T23:55:12.929Z,74.63
2023-02-25T23:58:07.858Z,74.70
